モスクワ/シェレメーチエヴォ の空港の天気 - METARとTAF

シェレメーチエヴォ国際空港(モスクワ) ( UUEE / SVO ) - ロシア モスクワ
飛行場実況気象(Metar)
観測時間07/17 12:00 MSK (07/17 09:00 UTC)
風向・風速北東 8m/s
視程10km以上
天気現象
全天の4割程度の雲 雲底高度 1220m
気温28℃
湿度58%
気圧1007hPa
METARUUEE 170900Z 04008MPS 9999 SCT040 28/19 Q1007 R06C/CLRD62 NOSIG
過去の天気等 Google飛行場航空写真 Wunderground天気予報

過去48時間のMETAR

飛行場予報(TAF)
発表時間: 7/17 10:57 MSK (7/17 07:57 UTC)
予報対象時間: 17日12時 MSK ~ 18日12時 MSK
風向・風速北東 7m/s
視程10km以上
全天の4割程度の雲 雲底高度 910m
17日12時 MSK ~ 17日21時 MSK に一時的に
風向・風速北東 9m/s 瞬間風速 16m/s
全天の8割程度の雲 雲底高度 760m
全天の4割程度の積乱雲 雲底高度 910m
TAF UUEE 170757Z 1709/1809 04007MPS 9999 SCT030 TX29/1712Z TN19/1802Z
TEMPO 1709/1718 05009G16MPS BKN025 SCT030CB